sensor_id;sensor_type;location;lat;lon;timestamp;P1;durP1;ratioP1;P2;durP2;ratioP2
30247;SDS011;17063;50.892;4.702;2023-03-14T00:01:20;4.07;;;0.93;;
30247;SDS011;17063;50.892;4.702;2023-03-14T00:03:47;2.53;;;1.00;;
30247;SDS011;17063;50.892;4.702;2023-03-14T00:06:14;2.80;;;1.10;;
30247;SDS011;17063;50.892;4.702;2023-03-14T00:08:45;4.97;;;1.20;;
30247;SDS011;17063;50.892;4.702;2023-03-14T00:11:14;6.13;;;1.10;;
30247;SDS011;17063;50.892;4.702;2023-03-14T00:13:43;5.47;;;1.20;;
30247;SDS011;17063;50.892;4.702;2023-03-14T00:16:13;4.93;;;1.00;;
30247;SDS011;17063;50.892;4.702;2023-03-14T00:18:40;3.27;;;1.00;;
30247;SDS011;17063;50.892;4.702;2023-03-14T00:21:08;6.43;;;1.33;;
30247;SDS011;17063;50.892;4.702;2023-03-14T00:23:37;4.50;;;1.10;;
30247;SDS011;17063;50.892;4.702;2023-03-14T00:26:06;4.33;;;1.30;;
30247;SDS011;17063;50.892;4.702;2023-03-14T00:28:43;7.90;;;1.50;;
30247;SDS011;17063;50.892;4.702;2023-03-14T00:31:11;5.23;;;1.10;;
30247;SDS011;17063;50.892;4.702;2023-03-14T00:33:40;4.40;;;1.33;;
30247;SDS011;17063;50.892;4.702;2023-03-14T00:36:13;4.93;;;1.10;;
30247;SDS011;17063;50.892;4.702;2023-03-14T00:38:42;8.67;;;1.40;;
30247;SDS011;17063;50.892;4.702;2023-03-14T00:41:11;15.80;;;1.90;;
30247;SDS011;17063;50.892;4.702;2023-03-14T00:43:40;4.70;;;1.20;;
30247;SDS011;17063;50.892;4.702;2023-03-14T00:46:07;6.57;;;1.53;;
30247;SDS011;17063;50.892;4.702;2023-03-14T00:48:34;8.73;;;1.70;;
30247;SDS011;17063;50.892;4.702;2023-03-14T00:51:02;8.37;;;1.47;;
30247;SDS011;17063;50.892;4.702;2023-03-14T00:53:29;6.63;;;1.40;;
30247;SDS011;17063;50.892;4.702;2023-03-14T00:55:56;11.00;;;1.83;;
30247;SDS011;17063;50.892;4.702;2023-03-14T00:58:23;6.67;;;1.70;;
30247;SDS011;17063;50.892;4.702;2023-03-14T01:00:49;7.90;;;1.50;;
30247;SDS011;17063;50.892;4.702;2023-03-14T01:03:16;10.63;;;2.20;;
30247;SDS011;17063;50.892;4.702;2023-03-14T01:05:43;11.27;;;2.80;;
30247;SDS011;17063;50.892;4.702;2023-03-14T01:08:10;10.63;;;2.67;;
30247;SDS011;17063;50.892;4.702;2023-03-14T01:10:38;8.40;;;1.60;;
30247;SDS011;17063;50.892;4.702;2023-03-14T01:13:07;4.17;;;1.23;;
30247;SDS011;17063;50.892;4.702;2023-03-14T01:15:35;8.27;;;1.77;;
30247;SDS011;17063;50.892;4.702;2023-03-14T01:18:02;8.07;;;1.60;;
30247;SDS011;17063;50.892;4.702;2023-03-14T01:20:30;9.50;;;1.63;;
30247;SDS011;17063;50.892;4.702;2023-03-14T01:22:57;10.43;;;1.70;;
30247;SDS011;17063;50.892;4.702;2023-03-14T01:25:24;6.43;;;1.37;;
30247;SDS011;17063;50.892;4.702;2023-03-14T01:27:51;5.30;;;1.80;;
30247;SDS011;17063;50.892;4.702;2023-03-14T01:30:18;9.43;;;1.60;;
30247;SDS011;17063;50.892;4.702;2023-03-14T01:32:45;9.63;;;1.27;;
30247;SDS011;17063;50.892;4.702;2023-03-14T01:35:12;9.47;;;1.60;;
30247;SDS011;17063;50.892;4.702;2023-03-14T01:37:39;9.53;;;2.00;;
30247;SDS011;17063;50.892;4.702;2023-03-14T01:40:11;10.43;;;2.13;;
30247;SDS011;17063;50.892;4.702;2023-03-14T01:42:38;5.77;;;1.40;;
30247;SDS011;17063;50.892;4.702;2023-03-14T01:45:05;10.23;;;1.80;;
30247;SDS011;17063;50.892;4.702;2023-03-14T01:47:32;9.50;;;1.60;;
30247;SDS011;17063;50.892;4.702;2023-03-14T01:50:00;7.33;;;1.73;;
30247;SDS011;17063;50.892;4.702;2023-03-14T01:52:37;9.90;;;1.30;;
30247;SDS011;17063;50.892;4.702;2023-03-14T01:55:12;6.30;;;1.40;;
30247;SDS011;17063;50.892;4.702;2023-03-14T01:57:45;9.10;;;1.90;;
30247;SDS011;17063;50.892;4.702;2023-03-14T02:00:16;6.60;;;1.40;;
30247;SDS011;17063;50.892;4.702;2023-03-14T02:02:48;2.73;;;1.30;;
30247;SDS011;17063;50.892;4.702;2023-03-14T02:05:19;5.00;;;1.40;;
30247;SDS011;17063;50.892;4.702;2023-03-14T02:08:00;9.60;;;1.40;;
30247;SDS011;17063;50.892;4.702;2023-03-14T02:10:37;5.97;;;1.70;;
30247;SDS011;17063;50.892;4.702;2023-03-14T02:13:07;9.00;;;1.40;;
30247;SDS011;17063;50.892;4.702;2023-03-14T02:15:40;3.60;;;1.13;;
30247;SDS011;17063;50.892;4.702;2023-03-14T02:18:30;5.50;;;1.30;;
30247;SDS011;17063;50.892;4.702;2023-03-14T02:21:14;7.13;;;1.70;;
30247;SDS011;17063;50.892;4.702;2023-03-14T02:24:09;4.83;;;1.20;;
30247;SDS011;17063;50.892;4.702;2023-03-14T02:29:39;5.43;;;1.20;;
30247;SDS011;17063;50.892;4.702;2023-03-14T02:32:10;5.73;;;1.10;;
30247;SDS011;17063;50.892;4.702;2023-03-14T02:34:39;6.73;;;1.17;;
30247;SDS011;17063;50.892;4.702;2023-03-14T02:37:07;5.53;;;1.20;;
30247;SDS011;17063;50.892;4.702;2023-03-14T02:39:41;4.83;;;0.97;;
30247;SDS011;17063;50.892;4.702;2023-03-14T02:42:13;2.70;;;0.93;;
30247;SDS011;17063;50.892;4.702;2023-03-14T02:44:50;5.93;;;1.30;;
30247;SDS011;17063;50.892;4.702;2023-03-14T02:47:26;2.63;;;0.93;;
30247;SDS011;17063;50.892;4.702;2023-03-14T02:49:57;3.87;;;0.70;;
30247;SDS011;17063;50.892;4.702;2023-03-14T02:52:28;3.43;;;0.80;;
30247;SDS011;17063;50.892;4.702;2023-03-14T02:54:55;5.40;;;1.17;;
30247;SDS011;17063;50.892;4.702;2023-03-14T02:57:23;2.23;;;0.70;;
30247;SDS011;17063;50.892;4.702;2023-03-14T02:59:50;2.23;;;0.93;;
30247;SDS011;17063;50.892;4.702;2023-03-14T03:02:18;1.67;;;0.73;;
30247;SDS011;17063;50.892;4.702;2023-03-14T03:04:45;5.17;;;0.83;;
30247;SDS011;17063;50.892;4.702;2023-03-14T03:07:12;3.83;;;0.70;;
30247;SDS011;17063;50.892;4.702;2023-03-14T03:09:39;3.07;;;0.97;;
30247;SDS011;17063;50.892;4.702;2023-03-14T03:12:05;3.93;;;1.33;;
30247;SDS011;17063;50.892;4.702;2023-03-14T03:14:32;7.50;;;1.20;;
30247;SDS011;17063;50.892;4.702;2023-03-14T03:17:02;1.33;;;0.60;;
30247;SDS011;17063;50.892;4.702;2023-03-14T03:19:29;4.83;;;1.13;;
30247;SDS011;17063;50.892;4.702;2023-03-14T03:21:57;5.63;;;1.07;;
30247;SDS011;17063;50.892;4.702;2023-03-14T03:24:24;4.13;;;1.60;;
30247;SDS011;17063;50.892;4.702;2023-03-14T03:26:53;5.00;;;1.03;;
30247;SDS011;17063;50.892;4.702;2023-03-14T03:29:20;4.47;;;1.27;;
30247;SDS011;17063;50.892;4.702;2023-03-14T03:31:47;5.53;;;1.60;;
30247;SDS011;17063;50.892;4.702;2023-03-14T03:34:14;4.07;;;1.13;;
30247;SDS011;17063;50.892;4.702;2023-03-14T03:36:41;8.07;;;1.40;;
30247;SDS011;17063;50.892;4.702;2023-03-14T03:39:08;6.37;;;1.20;;
30247;SDS011;17063;50.892;4.702;2023-03-14T03:41:35;9.03;;;1.33;;
30247;SDS011;17063;50.892;4.702;2023-03-14T03:44:02;9.63;;;2.00;;
30247;SDS011;17063;50.892;4.702;2023-03-14T03:46:31;9.47;;;2.20;;
30247;SDS011;17063;50.892;4.702;2023-03-14T03:48:58;7.87;;;1.50;;
30247;SDS011;17063;50.892;4.702;2023-03-14T03:51:27;8.10;;;1.73;;
30247;SDS011;17063;50.892;4.702;2023-03-14T03:53:55;10.63;;;1.67;;
30247;SDS011;17063;50.892;4.702;2023-03-14T03:56:27;4.57;;;1.50;;
30247;SDS011;17063;50.892;4.702;2023-03-14T03:58:55;10.80;;;1.97;;
30247;SDS011;17063;50.892;4.702;2023-03-14T04:01:23;5.43;;;1.50;;
30247;SDS011;17063;50.892;4.702;2023-03-14T04:03:52;8.93;;;1.70;;
30247;SDS011;17063;50.892;4.702;2023-03-14T04:06:20;9.07;;;1.83;;
30247;SDS011;17063;50.892;4.702;2023-03-14T04:08:49;6.27;;;1.50;;
30247;SDS011;17063;50.892;4.702;2023-03-14T04:11:35;7.33;;;1.60;;
30247;SDS011;17063;50.892;4.702;2023-03-14T04:14:09;6.40;;;1.20;;
30247;SDS011;17063;50.892;4.702;2023-03-14T04:16:37;6.37;;;1.30;;
30247;SDS011;17063;50.892;4.702;2023-03-14T04:19:10;8.20;;;1.60;;
30247;SDS011;17063;50.892;4.702;2023-03-14T04:21:37;12.40;;;2.27;;
30247;SDS011;17063;50.892;4.702;2023-03-14T04:24:10;5.53;;;1.40;;
30247;SDS011;17063;50.892;4.702;2023-03-14T04:26:37;8.03;;;1.87;;
30247;SDS011;17063;50.892;4.702;2023-03-14T04:29:04;4.73;;;1.27;;
30247;SDS011;17063;50.892;4.702;2023-03-14T04:31:31;4.60;;;1.80;;
30247;SDS011;17063;50.892;4.702;2023-03-14T04:33:58;8.93;;;1.70;;
30247;SDS011;17063;50.892;4.702;2023-03-14T04:36:35;2.77;;;1.37;;
30247;SDS011;17063;50.892;4.702;2023-03-14T04:39:08;3.23;;;1.53;;
30247;SDS011;17063;50.892;4.702;2023-03-14T04:41:38;3.97;;;1.53;;
30247;SDS011;17063;50.892;4.702;2023-03-14T04:44:07;5.90;;;1.13;;
30247;SDS011;17063;50.892;4.702;2023-03-14T04:46:34;5.73;;;1.60;;
30247;SDS011;17063;50.892;4.702;2023-03-14T04:49:04;10.87;;;1.40;;
30247;SDS011;17063;50.892;4.702;2023-03-14T04:51:31;4.37;;;1.27;;
30247;SDS011;17063;50.892;4.702;2023-03-14T04:53:58;9.30;;;1.60;;
30247;SDS011;17063;50.892;4.702;2023-03-14T04:56:25;6.47;;;1.10;;
30247;SDS011;17063;50.892;4.702;2023-03-14T04:58:53;2.23;;;0.80;;
30247;SDS011;17063;50.892;4.702;2023-03-14T05:01:20;4.40;;;1.07;;
30247;SDS011;17063;50.892;4.702;2023-03-14T05:04:00;5.07;;;1.63;;
30247;SDS011;17063;50.892;4.702;2023-03-14T05:06:53;4.03;;;0.97;;
30247;SDS011;17063;50.892;4.702;2023-03-14T05:09:46;3.00;;;1.00;;
30247;SDS011;17063;50.892;4.702;2023-03-14T05:12:40;1.70;;;1.00;;
30247;SDS011;17063;50.892;4.702;2023-03-14T05:15:30;2.57;;;1.10;;
30247;SDS011;17063;50.892;4.702;2023-03-14T05:18:08;2.00;;;1.20;;
30247;SDS011;17063;50.892;4.702;2023-03-14T05:20:45;5.90;;;1.50;;
30247;SDS011;17063;50.892;4.702;2023-03-14T05:23:25;1.43;;;1.30;;
30247;SDS011;17063;50.892;4.702;2023-03-14T05:26:12;4.00;;;1.27;;
30247;SDS011;17063;50.892;4.702;2023-03-14T05:28:52;4.13;;;1.40;;
30247;SDS011;17063;50.892;4.702;2023-03-14T05:31:33;2.27;;;1.37;;
30247;SDS011;17063;50.892;4.702;2023-03-14T05:34:24;3.10;;;1.50;;
30247;SDS011;17063;50.892;4.702;2023-03-14T05:37:10;2.83;;;1.40;;
30247;SDS011;17063;50.892;4.702;2023-03-14T05:39:59;5.90;;;1.60;;
30247;SDS011;17063;50.892;4.702;2023-03-14T05:42:45;2.30;;;1.50;;
30247;SDS011;17063;50.892;4.702;2023-03-14T05:45:29;2.40;;;1.50;;
30247;SDS011;17063;50.892;4.702;2023-03-14T05:48:21;3.83;;;1.70;;
30247;SDS011;17063;50.892;4.702;2023-03-14T05:51:11;2.00;;;1.50;;
30247;SDS011;17063;50.892;4.702;2023-03-14T05:54:01;4.20;;;1.70;;
30247;SDS011;17063;50.892;4.702;2023-03-14T05:56:47;2.93;;;1.73;;
30247;SDS011;17063;50.892;4.702;2023-03-14T05:59:30;4.17;;;1.63;;
30247;SDS011;17063;50.892;4.702;2023-03-14T06:02:27;3.03;;;1.60;;
30247;SDS011;17063;50.892;4.702;2023-03-14T06:05:02;2.40;;;1.57;;
30247;SDS011;17063;50.892;4.702;2023-03-14T06:07:29;3.50;;;1.70;;
30247;SDS011;17063;50.892;4.702;2023-03-14T06:09:56;2.97;;;1.50;;
30247;SDS011;17063;50.892;4.702;2023-03-14T06:12:24;4.23;;;1.90;;
30247;SDS011;17063;50.892;4.702;2023-03-14T06:14:51;5.13;;;2.07;;
30247;SDS011;17063;50.892;4.702;2023-03-14T06:17:18;6.03;;;2.10;;
30247;SDS011;17063;50.892;4.702;2023-03-14T06:19:53;4.20;;;2.20;;
30247;SDS011;17063;50.892;4.702;2023-03-14T06:22:20;3.13;;;2.00;;
30247;SDS011;17063;50.892;4.702;2023-03-14T06:24:47;5.60;;;2.50;;
30247;SDS011;17063;50.892;4.702;2023-03-14T06:27:15;2.40;;;2.20;;
30247;SDS011;17063;50.892;4.702;2023-03-14T06:29:43;2.83;;;2.33;;
30247;SDS011;17063;50.892;4.702;2023-03-14T06:32:10;2.33;;;2.13;;
30247;SDS011;17063;50.892;4.702;2023-03-14T06:34:37;5.43;;;2.53;;
30247;SDS011;17063;50.892;4.702;2023-03-14T06:37:05;3.47;;;2.33;;
30247;SDS011;17063;50.892;4.702;2023-03-14T06:39:32;2.10;;;1.90;;
30247;SDS011;17063;50.892;4.702;2023-03-14T06:42:05;4.23;;;2.60;;
30247;SDS011;17063;50.892;4.702;2023-03-14T06:44:33;2.30;;;2.10;;
30247;SDS011;17063;50.892;4.702;2023-03-14T06:47:00;3.77;;;2.37;;
30247;SDS011;17063;50.892;4.702;2023-03-14T06:49:26;4.17;;;1.70;;
30247;SDS011;17063;50.892;4.702;2023-03-14T06:51:55;2.00;;;1.80;;
30247;SDS011;17063;50.892;4.702;2023-03-14T06:54:23;3.47;;;1.57;;
30247;SDS011;17063;50.892;4.702;2023-03-14T06:56:50;4.23;;;1.77;;
30247;SDS011;17063;50.892;4.702;2023-03-14T06:59:17;4.60;;;1.67;;
30247;SDS011;17063;50.892;4.702;2023-03-14T07:01:46;2.50;;;1.10;;
30247;SDS011;17063;50.892;4.702;2023-03-14T07:04:14;4.83;;;1.93;;
30247;SDS011;17063;50.892;4.702;2023-03-14T07:06:44;3.30;;;1.23;;
30247;SDS011;17063;50.892;4.702;2023-03-14T07:09:13;3.53;;;1.57;;
30247;SDS011;17063;50.892;4.702;2023-03-14T07:11:46;1.10;;;1.00;;
30247;SDS011;17063;50.892;4.702;2023-03-14T07:14:15;1.27;;;1.00;;
30247;SDS011;17063;50.892;4.702;2023-03-14T07:16:42;3.13;;;0.80;;
30247;SDS011;17063;50.892;4.702;2023-03-14T07:19:09;1.13;;;0.70;;
30247;SDS011;17063;50.892;4.702;2023-03-14T07:21:36;1.10;;;0.77;;
30247;SDS011;17063;50.892;4.702;2023-03-14T07:24:07;1.87;;;0.80;;
30247;SDS011;17063;50.892;4.702;2023-03-14T07:26:34;1.87;;;1.10;;
30247;SDS011;17063;50.892;4.702;2023-03-14T07:29:00;1.37;;;0.77;;
30247;SDS011;17063;50.892;4.702;2023-03-14T07:31:30;0.57;;;0.57;;
30247;SDS011;17063;50.892;4.702;2023-03-14T07:33:57;2.17;;;0.97;;
30247;SDS011;17063;50.892;4.702;2023-03-14T07:36:28;2.67;;;0.90;;
30247;SDS011;17063;50.892;4.702;2023-03-14T07:38:55;0.80;;;0.70;;
30247;SDS011;17063;50.892;4.702;2023-03-14T07:41:31;2.77;;;1.00;;
30247;SDS011;17063;50.892;4.702;2023-03-14T07:44:17;1.90;;;0.90;;
30247;SDS011;17063;50.892;4.702;2023-03-14T07:46:43;2.37;;;0.90;;
30247;SDS011;17063;50.892;4.702;2023-03-14T07:49:10;2.40;;;0.90;;
30247;SDS011;17063;50.892;4.702;2023-03-14T07:51:37;2.90;;;1.27;;
30247;SDS011;17063;50.892;4.702;2023-03-14T07:54:04;3.40;;;1.07;;
30247;SDS011;17063;50.892;4.702;2023-03-14T07:56:30;5.90;;;1.10;;
30247;SDS011;17063;50.892;4.702;2023-03-14T07:58:58;2.43;;;1.03;;
30247;SDS011;17063;50.892;4.702;2023-03-14T08:01:25;3.03;;;1.03;;
30247;SDS011;17063;50.892;4.702;2023-03-14T08:03:51;3.37;;;1.47;;
30247;SDS011;17063;50.892;4.702;2023-03-14T08:06:18;3.07;;;1.10;;
30247;SDS011;17063;50.892;4.702;2023-03-14T08:08:45;2.53;;;1.30;;
30247;SDS011;17063;50.892;4.702;2023-03-14T08:11:12;2.27;;;1.27;;
30247;SDS011;17063;50.892;4.702;2023-03-14T08:13:38;3.93;;;1.33;;
30247;SDS011;17063;50.892;4.702;2023-03-14T08:16:06;5.50;;;1.40;;
30247;SDS011;17063;50.892;4.702;2023-03-14T08:18:33;2.70;;;1.60;;
30247;SDS011;17063;50.892;4.702;2023-03-14T08:21:00;6.03;;;1.60;;
30247;SDS011;17063;50.892;4.702;2023-03-14T08:23:27;4.60;;;1.70;;
30247;SDS011;17063;50.892;4.702;2023-03-14T08:25:53;5.90;;;2.43;;
30247;SDS011;17063;50.892;4.702;2023-03-14T08:28:20;4.20;;;2.23;;
30247;SDS011;17063;50.892;4.702;2023-03-14T08:30:47;5.87;;;2.50;;
30247;SDS011;17063;50.892;4.702;2023-03-14T08:33:14;4.20;;;2.10;;
30247;SDS011;17063;50.892;4.702;2023-03-14T08:35:41;9.30;;;2.63;;
30247;SDS011;17063;50.892;4.702;2023-03-14T08:38:08;7.07;;;2.63;;
30247;SDS011;17063;50.892;4.702;2023-03-14T08:40:35;6.00;;;2.03;;
30247;SDS011;17063;50.892;4.702;2023-03-14T08:43:02;8.83;;;3.23;;
30247;SDS011;17063;50.892;4.702;2023-03-14T08:45:28;4.40;;;2.50;;
30247;SDS011;17063;50.892;4.702;2023-03-14T08:47:57;5.70;;;2.30;;
30247;SDS011;17063;50.892;4.702;2023-03-14T08:50:23;3.53;;;2.33;;
30247;SDS011;17063;50.892;4.702;2023-03-14T08:52:50;4.27;;;1.53;;
30247;SDS011;17063;50.892;4.702;2023-03-14T08:55:17;1.70;;;1.20;;
30247;SDS011;17063;50.892;4.702;2023-03-14T08:57:44;3.83;;;1.40;;
30247;SDS011;17063;50.892;4.702;2023-03-14T09:00:12;1.67;;;1.20;;
30247;SDS011;17063;50.892;4.702;2023-03-14T09:02:41;2.57;;;1.33;;
30247;SDS011;17063;50.892;4.702;2023-03-14T09:05:09;4.30;;;1.40;;
30247;SDS011;17063;50.892;4.702;2023-03-14T09:07:37;1.87;;;1.33;;
30247;SDS011;17063;50.892;4.702;2023-03-14T09:10:05;2.23;;;0.90;;
30247;SDS011;17063;50.892;4.702;2023-03-14T09:12:32;4.87;;;1.20;;
30247;SDS011;17063;50.892;4.702;2023-03-14T09:15:01;1.50;;;1.30;;
30247;SDS011;17063;50.892;4.702;2023-03-14T09:17:28;5.23;;;1.93;;
30247;SDS011;17063;50.892;4.702;2023-03-14T09:19:55;1.73;;;1.50;;
30247;SDS011;17063;50.892;4.702;2023-03-14T09:22:26;4.67;;;1.80;;
30247;SDS011;17063;50.892;4.702;2023-03-14T09:24:53;4.33;;;2.30;;
30247;SDS011;17063;50.892;4.702;2023-03-14T09:27:19;8.70;;;2.10;;
30247;SDS011;17063;50.892;4.702;2023-03-14T09:29:46;6.60;;;1.83;;
30247;SDS011;17063;50.892;4.702;2023-03-14T09:32:13;3.07;;;1.97;;
30247;SDS011;17063;50.892;4.702;2023-03-14T09:34:39;7.93;;;1.70;;
30247;SDS011;17063;50.892;4.702;2023-03-14T09:37:06;2.60;;;1.47;;
30247;SDS011;17063;50.892;4.702;2023-03-14T09:39:33;1.57;;;1.47;;
30247;SDS011;17063;50.892;4.702;2023-03-14T09:42:01;3.47;;;1.77;;
30247;SDS011;17063;50.892;4.702;2023-03-14T09:44:33;2.83;;;1.70;;
30247;SDS011;17063;50.892;4.702;2023-03-14T09:47:06;4.63;;;1.80;;
30247;SDS011;17063;50.892;4.702;2023-03-14T09:49:34;4.73;;;1.80;;
30247;SDS011;17063;50.892;4.702;2023-03-14T09:52:23;3.83;;;2.07;;
30247;SDS011;17063;50.892;4.702;2023-03-14T09:57:29;2.17;;;1.97;;
30247;SDS011;17063;50.892;4.702;2023-03-14T09:59:56;2.60;;;2.30;;
30247;SDS011;17063;50.892;4.702;2023-03-14T10:02:34;2.33;;;2.13;;
30247;SDS011;17063;50.892;4.702;2023-03-14T10:05:04;4.70;;;2.30;;
30247;SDS011;17063;50.892;4.702;2023-03-14T10:07:34;4.70;;;2.23;;
30247;SDS011;17063;50.892;4.702;2023-03-14T10:10:08;7.80;;;1.90;;
30247;SDS011;17063;50.892;4.702;2023-03-14T10:12:40;4.97;;;2.77;;
30247;SDS011;17063;50.892;4.702;2023-03-14T10:15:12;5.67;;;2.50;;
30247;SDS011;17063;50.892;4.702;2023-03-14T10:17:47;4.93;;;1.97;;
30247;SDS011;17063;50.892;4.702;2023-03-14T10:20:31;6.67;;;2.30;;
30247;SDS011;17063;50.892;4.702;2023-03-14T10:23:00;5.03;;;2.20;;
30247;SDS011;17063;50.892;4.702;2023-03-14T10:25:34;9.63;;;2.13;;
30247;SDS011;17063;50.892;4.702;2023-03-14T10:28:03;6.83;;;2.43;;
30247;SDS011;17063;50.892;4.702;2023-03-14T10:30:38;4.63;;;2.17;;
30247;SDS011;17063;50.892;4.702;2023-03-14T10:33:12;8.53;;;2.63;;
30247;SDS011;17063;50.892;4.702;2023-03-14T10:35:57;11.97;;;2.80;;
30247;SDS011;17063;50.892;4.702;2023-03-14T10:38:30;6.67;;;2.37;;
30247;SDS011;17063;50.892;4.702;2023-03-14T10:40:59;7.70;;;2.20;;
30247;SDS011;17063;50.892;4.702;2023-03-14T10:43:27;4.20;;;1.50;;
30247;SDS011;17063;50.892;4.702;2023-03-14T10:46:17;2.67;;;1.30;;
30247;SDS011;17063;50.892;4.702;2023-03-14T10:49:04;2.40;;;1.10;;
30247;SDS011;17063;50.892;4.702;2023-03-14T10:51:33;7.93;;;1.30;;
30247;SDS011;17063;50.892;4.702;2023-03-14T10:54:01;3.90;;;0.87;;
30247;SDS011;17063;50.892;4.702;2023-03-14T10:56:34;2.50;;;1.17;;
30247;SDS011;17063;50.892;4.702;2023-03-14T10:59:03;1.77;;;0.77;;
30247;SDS011;17063;50.892;4.702;2023-03-14T11:15:21;1.50;;;0.70;;
30247;SDS011;17063;50.892;4.702;2023-03-14T11:18:05;1.13;;;0.60;;
30247;SDS011;17063;50.892;4.702;2023-03-14T11:20:42;1.90;;;0.40;;
30247;SDS011;17063;50.892;4.702;2023-03-14T11:23:16;0.37;;;0.37;;
30247;SDS011;17063;50.892;4.702;2023-03-14T11:28:50;0.50;;;0.50;;
30247;SDS011;17063;50.892;4.702;2023-03-14T11:31:33;1.00;;;0.70;;
30247;SDS011;17063;50.892;4.702;2023-03-14T11:36:39;3.17;;;0.80;;
30247;SDS011;17063;50.892;4.702;2023-03-14T11:39:13;0.70;;;0.70;;
30247;SDS011;17063;50.892;4.702;2023-03-14T11:42:00;2.07;;;0.70;;
30247;SDS011;17063;50.892;4.702;2023-03-14T11:44:35;1.37;;;0.70;;
30247;SDS011;17063;50.892;4.702;2023-03-14T11:47:08;4.37;;;0.73;;
30247;SDS011;17063;50.892;4.702;2023-03-14T11:49:43;2.23;;;0.80;;
30247;SDS011;17063;50.892;4.702;2023-03-14T11:52:25;1.40;;;0.50;;
30247;SDS011;17063;50.892;4.702;2023-03-14T11:55:02;2.70;;;0.80;;
30247;SDS011;17063;50.892;4.702;2023-03-14T11:57:34;3.50;;;0.90;;
30247;SDS011;17063;50.892;4.702;2023-03-14T12:06:02;3.50;;;0.60;;
30247;SDS011;17063;50.892;4.702;2023-03-14T12:11:28;0.60;;;0.50;;
30247;SDS011;17063;50.892;4.702;2023-03-14T12:14:20;5.47;;;0.50;;
30247;SDS011;17063;50.892;4.702;2023-03-14T12:16:53;1.63;;;0.57;;
30247;SDS011;17063;50.892;4.702;2023-03-14T12:22:00;2.20;;;0.80;;
30247;SDS011;17063;50.892;4.702;2023-03-14T12:24:34;1.43;;;0.70;;
30247;SDS011;17063;50.892;4.702;2023-03-14T12:27:03;2.33;;;0.80;;
30247;SDS011;17063;50.892;4.702;2023-03-14T12:29:31;2.07;;;1.63;;
30247;SDS011;17063;50.892;4.702;2023-03-14T12:34:29;1.20;;;0.80;;
30247;SDS011;17063;50.892;4.702;2023-03-14T12:37:01;3.63;;;0.90;;
30247;SDS011;17063;50.892;4.702;2023-03-14T12:42:43;0.67;;;0.60;;
30247;SDS011;17063;50.892;4.702;2023-03-14T12:47:52;2.87;;;0.80;;
30247;SDS011;17063;50.892;4.702;2023-03-14T12:50:24;5.10;;;1.23;;
30247;SDS011;17063;50.892;4.702;2023-03-14T12:53:00;7.40;;;1.70;;
30247;SDS011;17063;50.892;4.702;2023-03-14T12:55:45;6.60;;;1.30;;
30247;SDS011;17063;50.892;4.702;2023-03-14T12:58:35;8.63;;;2.33;;
30247;SDS011;17063;50.892;4.702;2023-03-14T13:01:03;8.83;;;1.50;;
30247;SDS011;17063;50.892;4.702;2023-03-14T13:03:42;6.23;;;1.60;;
30247;SDS011;17063;50.892;4.702;2023-03-14T13:06:12;4.97;;;1.23;;
30247;SDS011;17063;50.892;4.702;2023-03-14T13:11:16;6.00;;;1.70;;
30247;SDS011;17063;50.892;4.702;2023-03-14T13:13:49;4.80;;;1.33;;
30247;SDS011;17063;50.892;4.702;2023-03-14T13:16:19;1.70;;;0.90;;
30247;SDS011;17063;50.892;4.702;2023-03-14T13:18:48;3.67;;;1.23;;
30247;SDS011;17063;50.892;4.702;2023-03-14T13:21:18;7.20;;;1.40;;
30247;SDS011;17063;50.892;4.702;2023-03-14T13:23:59;5.77;;;1.43;;
30247;SDS011;17063;50.892;4.702;2023-03-14T13:26:37;2.07;;;0.97;;
30247;SDS011;17063;50.892;4.702;2023-03-14T13:29:09;1.80;;;0.87;;
30247;SDS011;17063;50.892;4.702;2023-03-14T13:31:58;2.23;;;1.03;;
30247;SDS011;17063;50.892;4.702;2023-03-14T13:34:30;1.67;;;1.20;;
30247;SDS011;17063;50.892;4.702;2023-03-14T13:36:59;4.90;;;1.40;;
30247;SDS011;17063;50.892;4.702;2023-03-14T13:39:30;5.40;;;1.50;;
30247;SDS011;17063;50.892;4.702;2023-03-14T13:41:58;7.03;;;1.97;;
30247;SDS011;17063;50.892;4.702;2023-03-14T13:44:35;3.03;;;1.20;;
30247;SDS011;17063;50.892;4.702;2023-03-14T13:47:04;6.73;;;1.50;;
30247;SDS011;17063;50.892;4.702;2023-03-14T13:49:33;8.93;;;1.50;;
30247;SDS011;17063;50.892;4.702;2023-03-14T13:52:02;7.70;;;1.80;;
30247;SDS011;17063;50.892;4.702;2023-03-14T13:54:29;10.77;;;1.60;;
30247;SDS011;17063;50.892;4.702;2023-03-14T13:57:01;10.93;;;2.07;;
30247;SDS011;17063;50.892;4.702;2023-03-14T13:59:33;8.10;;;1.80;;
30247;SDS011;17063;50.892;4.702;2023-03-14T14:02:03;6.37;;;1.53;;
30247;SDS011;17063;50.892;4.702;2023-03-14T14:04:33;8.80;;;1.50;;
30247;SDS011;17063;50.892;4.702;2023-03-14T14:07:06;14.53;;;1.97;;
30247;SDS011;17063;50.892;4.702;2023-03-14T14:09:41;8.03;;;1.67;;
30247;SDS011;17063;50.892;4.702;2023-03-14T14:12:16;10.03;;;1.83;;
30247;SDS011;17063;50.892;4.702;2023-03-14T14:14:49;14.33;;;2.03;;
30247;SDS011;17063;50.892;4.702;2023-03-14T14:17:22;13.37;;;1.90;;
30247;SDS011;17063;50.892;4.702;2023-03-14T14:19:52;10.20;;;2.00;;
30247;SDS011;17063;50.892;4.702;2023-03-14T14:22:19;8.87;;;1.60;;
30247;SDS011;17063;50.892;4.702;2023-03-14T14:24:46;11.00;;;2.57;;
30247;SDS011;17063;50.892;4.702;2023-03-14T14:27:18;10.70;;;1.87;;
30247;SDS011;17063;50.892;4.702;2023-03-14T14:29:57;11.83;;;1.93;;
30247;SDS011;17063;50.892;4.702;2023-03-14T14:32:25;16.60;;;1.97;;
30247;SDS011;17063;50.892;4.702;2023-03-14T14:34:57;19.50;;;2.77;;
30247;SDS011;17063;50.892;4.702;2023-03-14T14:37:27;12.80;;;2.57;;
30247;SDS011;17063;50.892;4.702;2023-03-14T14:39:58;9.50;;;2.20;;
30247;SDS011;17063;50.892;4.702;2023-03-14T14:42:28;16.50;;;2.50;;
30247;SDS011;17063;50.892;4.702;2023-03-14T14:44:56;20.57;;;2.80;;
30247;SDS011;17063;50.892;4.702;2023-03-14T14:47:25;9.57;;;2.03;;
30247;SDS011;17063;50.892;4.702;2023-03-14T14:49:53;16.30;;;2.30;;
30247;SDS011;17063;50.892;4.702;2023-03-14T14:52:27;11.07;;;2.30;;
30247;SDS011;17063;50.892;4.702;2023-03-14T14:55:11;11.77;;;1.93;;
30247;SDS011;17063;50.892;4.702;2023-03-14T14:57:54;13.70;;;2.60;;
30247;SDS011;17063;50.892;4.702;2023-03-14T15:00:23;7.67;;;2.80;;
30247;SDS011;17063;50.892;4.702;2023-03-14T15:02:58;5.70;;;1.37;;
30247;SDS011;17063;50.892;4.702;2023-03-14T15:05:29;4.17;;;1.13;;
30247;SDS011;17063;50.892;4.702;2023-03-14T15:07:57;7.10;;;1.23;;
30247;SDS011;17063;50.892;4.702;2023-03-14T15:10:25;9.23;;;1.30;;
30247;SDS011;17063;50.892;4.702;2023-03-14T15:12:52;10.87;;;1.10;;
30247;SDS011;17063;50.892;4.702;2023-03-14T15:15:19;4.00;;;1.00;;
30247;SDS011;17063;50.892;4.702;2023-03-14T15:17:49;2.43;;;0.90;;
30247;SDS011;17063;50.892;4.702;2023-03-14T15:20:16;4.10;;;1.23;;
30247;SDS011;17063;50.892;4.702;2023-03-14T15:22:44;6.07;;;1.20;;
30247;SDS011;17063;50.892;4.702;2023-03-14T15:25:17;9.43;;;2.73;;
30247;SDS011;17063;50.892;4.702;2023-03-14T15:30:57;4.97;;;1.13;;
30247;SDS011;17063;50.892;4.702;2023-03-14T15:33:25;3.03;;;1.10;;
30247;SDS011;17063;50.892;4.702;2023-03-14T15:35:53;3.77;;;1.23;;
30247;SDS011;17063;50.892;4.702;2023-03-14T15:38:20;4.17;;;1.10;;
30247;SDS011;17063;50.892;4.702;2023-03-14T15:40:51;2.37;;;1.00;;
30247;SDS011;17063;50.892;4.702;2023-03-14T15:43:18;6.30;;;1.00;;
30247;SDS011;17063;50.892;4.702;2023-03-14T15:45:46;9.13;;;1.47;;
30247;SDS011;17063;50.892;4.702;2023-03-14T15:48:17;2.20;;;1.40;;
30247;SDS011;17063;50.892;4.702;2023-03-14T15:50:47;4.20;;;1.30;;
30247;SDS011;17063;50.892;4.702;2023-03-14T15:53:44;6.80;;;1.33;;
30247;SDS011;17063;50.892;4.702;2023-03-14T15:56:38;8.23;;;1.20;;
30247;SDS011;17063;50.892;4.702;2023-03-14T15:59:06;8.77;;;1.23;;
30247;SDS011;17063;50.892;4.702;2023-03-14T16:01:33;2.50;;;1.20;;